createdAt,value
2022-12-03T00:01:30.126Z,54.10
2022-12-03T00:03:59.232Z,61.13
2022-12-03T00:06:31.473Z,53.47
2022-12-03T00:09:01.815Z,49.03
2022-12-03T00:11:29.315Z,58.67
2022-12-03T00:14:00.001Z,58.60
2022-12-03T00:16:27.709Z,54.17
2022-12-03T00:18:55.251Z,55.20
2022-12-03T00:21:24.865Z,58.60
2022-12-03T00:23:52.531Z,56.83
2022-12-03T00:26:20.163Z,54.80
2022-12-03T00:28:48.067Z,52.53
2022-12-03T00:31:15.726Z,53.53
2022-12-03T00:33:43.380Z,59.77
2022-12-03T00:36:11.094Z,59.40
2022-12-03T00:38:40.072Z,57.57
2022-12-03T00:41:07.612Z,62.40
2022-12-03T00:43:35.154Z,52.10
2022-12-03T00:46:02.791Z,63.43
2022-12-03T00:48:30.385Z,59.87
2022-12-03T00:51:00.989Z,61.57
2022-12-03T00:53:28.586Z,63.50
2022-12-03T00:55:59.172Z,60.70
2022-12-03T00:58:26.775Z,59.03
2022-12-03T01:00:54.278Z,60.27
2022-12-03T01:03:21.903Z,56.63
2022-12-03T01:05:49.633Z,60.50
2022-12-03T01:08:17.315Z,63.63
2022-12-03T01:10:44.883Z,62.37
2022-12-03T01:13:13.814Z,60.07
2022-12-03T01:15:41.464Z,58.93
2022-12-03T01:18:09.072Z,58.67
2022-12-03T01:20:38.520Z,54.27
2022-12-03T01:23:06.157Z,63.13
2022-12-03T01:25:33.680Z,57.97
2022-12-03T01:28:01.255Z,50.80
2022-12-03T01:30:50.172Z,47.87
2022-12-03T01:33:16.767Z,48.83
2022-12-03T01:35:44.312Z,52.53
2022-12-03T01:38:11.834Z,51.87
2022-12-03T01:40:39.365Z,52.50
2022-12-03T01:43:06.907Z,54.23
2022-12-03T01:45:35.911Z,62.20
2022-12-03T01:48:03.485Z,59.63
2022-12-03T01:50:32.638Z,56.90
2022-12-03T01:53:01.456Z,55.30
2022-12-03T01:55:29.205Z,50.83
2022-12-03T01:57:57.647Z,52.90
2022-12-03T02:00:26.965Z,58.60
2022-12-03T02:02:58.516Z,55.33
2022-12-03T02:05:27.595Z,60.50
2022-12-03T02:07:55.633Z,61.30
2022-12-03T02:10:25.374Z,50.77
2022-12-03T02:12:55.354Z,58.87
2022-12-03T02:15:23.282Z,57.60
2022-12-03T02:17:51.338Z,58.20
2022-12-03T02:20:20.963Z,60.90
2022-12-03T02:22:54.363Z,56.47
2022-12-03T02:25:24.644Z,56.27
2022-12-03T02:27:53.988Z,56.97
2022-12-03T02:30:22.572Z,45.50
2022-12-03T02:32:50.577Z,53.70
2022-12-03T02:35:19.566Z,60.20
2022-12-03T02:37:48.540Z,57.10
2022-12-03T02:40:18.099Z,53.90
2022-12-03T02:42:46.449Z,57.57
2022-12-03T02:45:16.129Z,51.73
2022-12-03T02:47:44.691Z,53.70
2022-12-03T02:50:13.443Z,52.50
2022-12-03T02:52:42.037Z,51.47
2022-12-03T02:55:10.070Z,50.63
2022-12-03T02:57:39.755Z,48.37
2022-12-03T03:00:10.915Z,43.03
2022-12-03T03:02:38.705Z,51.20
2022-12-03T03:05:07.327Z,58.90
2022-12-03T03:07:35.353Z,49.33
2022-12-03T03:10:03.244Z,52.87
2022-12-03T03:12:34.755Z,49.03
2022-12-03T03:15:05.873Z,54.50
2022-12-03T03:17:34.925Z,52.97
2022-12-03T03:20:02.617Z,46.63
2022-12-03T03:22:33.124Z,53.60
2022-12-03T03:25:00.805Z,45.97
2022-12-03T03:27:28.450Z,57.47
2022-12-03T03:29:57.503Z,50.47
2022-12-03T03:32:25.404Z,49.60
2022-12-03T03:34:54.648Z,51.20
2022-12-03T03:37:22.432Z,56.57
2022-12-03T03:39:50.239Z,52.90
2022-12-03T03:42:17.965Z,45.73
2022-12-03T03:44:45.590Z,49.63
2022-12-03T03:47:13.359Z,56.20
2022-12-03T03:49:41.047Z,57.07
2022-12-03T03:52:11.815Z,52.70
2022-12-03T03:54:40.124Z,51.50
2022-12-03T03:57:08.300Z,55.60
2022-12-03T03:59:35.838Z,53.03
2022-12-03T04:02:03.537Z,51.57
2022-12-03T04:04:34.224Z,53.27
2022-12-03T04:07:01.799Z,58.27
2022-12-03T04:09:30.641Z,64.03
2022-12-03T04:12:15.679Z,55.63
2022-12-03T04:14:43.249Z,61.53
2022-12-03T04:17:10.859Z,51.93
2022-12-03T04:19:38.451Z,55.93
2022-12-03T04:22:23.392Z,69.77
2022-12-03T04:25:12.353Z,64.73
2022-12-03T04:27:57.404Z,56.03
2022-12-03T04:30:24.974Z,61.17
2022-12-03T04:33:09.903Z,56.57
2022-12-03T04:35:54.043Z,65.37
2022-12-03T04:38:21.667Z,53.90
2022-12-03T04:41:04.246Z,65.10
2022-12-03T04:43:32.843Z,52.00
2022-12-03T04:46:15.657Z,61.33
2022-12-03T04:48:43.323Z,59.43
2022-12-03T04:51:11.054Z,57.53
2022-12-03T04:53:43.288Z,57.33
2022-12-03T04:56:14.937Z,56.40
2022-12-03T04:58:42.499Z,56.97
2022-12-03T05:01:10.171Z,63.40
2022-12-03T05:03:37.654Z,60.23
2022-12-03T05:06:05.227Z,62.70
2022-12-03T05:08:32.725Z,62.27
2022-12-03T05:11:00.255Z,58.80
2022-12-03T05:13:29.214Z,63.47
2022-12-03T05:15:56.924Z,57.53
2022-12-03T05:18:24.403Z,61.80
2022-12-03T05:20:53.662Z,59.93
2022-12-03T05:23:21.834Z,70.70
2022-12-03T05:25:49.331Z,64.27
2022-12-03T05:28:16.924Z,58.43
2022-12-03T05:30:45.863Z,61.70
2022-12-03T05:33:13.546Z,71.57
2022-12-03T05:35:41.141Z,69.60
2022-12-03T05:38:08.689Z,75.10
2022-12-03T05:40:36.541Z,65.90
2022-12-03T05:43:03.938Z,73.93
2022-12-03T05:45:32.916Z,73.23
2022-12-03T05:48:02.466Z,63.93
2022-12-03T05:50:30.944Z,71.03
2022-12-03T05:52:58.902Z,70.43
2022-12-03T05:55:26.677Z,64.67
2022-12-03T05:57:54.300Z,67.40
2022-12-03T06:00:22.831Z,70.37
2022-12-03T06:02:51.833Z,61.77
2022-12-03T06:05:21.170Z,57.70
2022-12-03T06:07:49.135Z,69.20
2022-12-03T06:10:17.786Z,72.00
2022-12-03T06:12:45.301Z,75.20
2022-12-03T06:15:14.161Z,63.20
2022-12-03T06:17:42.384Z,69.57
2022-12-03T06:20:11.330Z,73.23
2022-12-03T06:22:40.403Z,72.97
2022-12-03T06:25:08.294Z,62.90
2022-12-03T06:27:35.906Z,73.07
2022-12-03T06:30:03.494Z,61.53
2022-12-03T06:32:31.343Z,65.70
2022-12-03T06:34:58.905Z,60.50
2022-12-03T06:37:26.393Z,68.00
2022-12-03T06:39:55.319Z,63.17
2022-12-03T06:42:22.862Z,74.37
2022-12-03T06:44:50.446Z,63.67
2022-12-03T06:47:18.022Z,75.00
2022-12-03T06:49:45.537Z,68.53
2022-12-03T06:52:13.126Z,67.60
2022-12-03T06:54:40.787Z,66.13
2022-12-03T06:57:12.044Z,75.10
2022-12-03T06:59:39.729Z,72.77
2022-12-03T07:02:07.682Z,73.73
2022-12-03T07:04:35.241Z,72.13
2022-12-03T07:07:02.829Z,62.23
2022-12-03T07:09:30.499Z,70.73
2022-12-03T07:11:58.430Z,73.30
2022-12-03T07:14:27.362Z,71.10
2022-12-03T07:16:54.860Z,74.87
2022-12-03T07:19:25.197Z,68.17
2022-12-03T07:21:55.196Z,61.77
2022-12-03T07:24:22.903Z,72.87
2022-12-03T07:26:50.410Z,84.73
2022-12-03T07:29:17.978Z,78.23
2022-12-03T07:31:47.012Z,86.57
2022-12-03T07:34:14.684Z,76.13
2022-12-03T07:36:42.182Z,75.07
2022-12-03T07:39:09.690Z,77.87
2022-12-03T07:41:37.363Z,83.73
2022-12-03T07:44:09.296Z,75.87
2022-12-03T07:46:42.167Z,70.83
2022-12-03T07:49:12.196Z,71.20
2022-12-03T07:51:39.895Z,73.83
2022-12-03T07:54:07.774Z,76.23
2022-12-03T07:56:35.562Z,74.57
2022-12-03T07:59:03.058Z,73.00
2022-12-03T08:01:30.872Z,76.33
2022-12-03T08:04:00.765Z,86.10
2022-12-03T08:06:29.837Z,66.87
2022-12-03T08:08:57.601Z,69.93
2022-12-03T08:11:25.259Z,69.33
2022-12-03T08:13:52.850Z,60.70
2022-12-03T08:16:21.259Z,61.57
2022-12-03T08:18:49.292Z,60.23
2022-12-03T08:21:18.367Z,56.60
2022-12-03T08:23:47.244Z,52.13
2022-12-03T08:26:20.166Z,51.73
2022-12-03T08:28:48.128Z,52.80
2022-12-03T08:31:20.365Z,49.13
2022-12-03T08:33:48.941Z,49.60
2022-12-03T08:36:19.969Z,52.43
2022-12-03T08:38:51.004Z,52.03
2022-12-03T08:41:40.382Z,50.63
2022-12-03T08:44:22.670Z,47.20
2022-12-03T08:46:51.236Z,48.17
2022-12-03T08:49:19.820Z,56.10
2022-12-03T08:51:47.350Z,42.80
2022-12-03T08:54:20.016Z,42.87
2022-12-03T08:56:47.558Z,51.43
2022-12-03T08:59:25.437Z,48.53
2022-12-03T09:01:53.527Z,48.23
2022-12-03T09:04:24.048Z,47.03
2022-12-03T09:06:51.979Z,44.93
2022-12-03T09:09:20.903Z,44.90
2022-12-03T09:11:48.626Z,45.40
2022-12-03T09:14:18.985Z,45.30
2022-12-03T09:16:49.089Z,43.60
2022-12-03T09:19:16.770Z,37.23
2022-12-03T09:21:44.502Z,42.03
2022-12-03T09:24:12.061Z,46.43
2022-12-03T09:26:41.003Z,41.37
2022-12-03T09:29:12.137Z,54.73
2022-12-03T09:31:43.091Z,45.27
2022-12-03T09:34:11.164Z,42.27
2022-12-03T09:36:38.792Z,44.37
2022-12-03T09:39:06.416Z,39.60
2022-12-03T09:41:34.014Z,37.53
2022-12-03T09:44:04.930Z,39.73
2022-12-03T09:46:33.669Z,36.03
2022-12-03T09:49:01.636Z,34.27
2022-12-03T09:51:35.852Z,40.13
2022-12-03T09:54:04.702Z,37.03
2022-12-03T09:56:33.729Z,27.67
2022-12-03T09:59:01.536Z,30.77
2022-12-03T10:01:32.133Z,34.10
2022-12-03T10:03:59.836Z,30.13
2022-12-03T10:06:27.368Z,30.47
2022-12-03T10:08:55.725Z,38.20
2022-12-03T10:11:25.021Z,33.90
2022-12-03T10:13:53.076Z,31.00
2022-12-03T10:16:21.290Z,32.10
2022-12-03T10:18:51.690Z,35.57
2022-12-03T10:21:20.476Z,34.87
2022-12-03T10:23:54.935Z,31.07
2022-12-03T10:26:36.938Z,33.40
2022-12-03T10:29:12.581Z,32.40
2022-12-03T10:31:40.099Z,33.30
2022-12-03T10:34:09.749Z,31.70
2022-12-03T10:36:37.543Z,32.37
2022-12-03T10:39:07.793Z,29.57
2022-12-03T10:41:35.539Z,35.33
2022-12-03T10:44:13.599Z,33.93
2022-12-03T10:46:41.349Z,27.47
2022-12-03T10:49:11.267Z,33.83
2022-12-03T10:51:39.452Z,37.10
2022-12-03T10:54:14.607Z,30.73
2022-12-03T10:56:42.164Z,31.23
2022-12-03T10:59:13.414Z,29.10
2022-12-03T11:01:41.060Z,28.30
2022-12-03T11:04:16.608Z,31.80
2022-12-03T11:06:44.114Z,28.23
2022-12-03T11:09:15.216Z,24.90
2022-12-03T11:11:42.856Z,29.03
2022-12-03T11:14:11.236Z,26.90
2022-12-03T11:17:11.425Z,25.60
2022-12-03T11:19:44.707Z,25.40
2022-12-03T11:22:39.955Z,25.93
2022-12-03T11:25:26.022Z,21.83
2022-12-03T11:28:08.630Z,26.93
2022-12-03T11:30:56.531Z,25.80
2022-12-03T11:33:25.312Z,24.70
2022-12-03T11:36:07.939Z,25.27
2022-12-03T11:38:56.539Z,37.20
2022-12-03T11:41:26.173Z,43.93
2022-12-03T11:44:27.978Z,32.43
2022-12-03T11:46:57.476Z,23.83
2022-12-03T11:49:34.721Z,20.87
2022-12-03T11:52:06.198Z,26.53
2022-12-03T11:54:37.056Z,23.80
2022-12-03T11:57:05.148Z,25.40
2022-12-03T11:59:33.127Z,25.23
2022-12-03T12:02:01.798Z,36.90
2022-12-03T12:04:31.180Z,26.60
2022-12-03T12:07:01.177Z,27.37
2022-12-03T12:09:47.558Z,27.37
2022-12-03T12:12:31.063Z,31.70
2022-12-03T12:14:59.911Z,33.13
2022-12-03T12:17:35.167Z,28.80
2022-12-03T12:20:13.070Z,29.87
2022-12-03T12:22:40.723Z,32.70
2022-12-03T12:25:26.574Z,30.30
2022-12-03T12:27:56.030Z,43.30
2022-12-03T12:30:24.824Z,32.50
2022-12-03T12:32:56.660Z,34.83
2022-12-03T12:35:26.020Z,28.90
2022-12-03T12:38:00.981Z,31.53
2022-12-03T12:40:29.533Z,26.77
2022-12-03T12:43:11.768Z,32.00
2022-12-03T12:45:41.187Z,31.87
2022-12-03T12:48:16.382Z,33.03
2022-12-03T12:50:45.849Z,32.40
2022-12-03T12:53:17.266Z,32.47
2022-12-03T12:55:45.873Z,26.20
2022-12-03T12:58:17.157Z,33.07
2022-12-03T13:00:46.291Z,26.87
2022-12-03T13:03:18.615Z,32.23
2022-12-03T13:05:48.352Z,30.00
2022-12-03T13:08:25.751Z,32.67
2022-12-03T13:10:56.405Z,36.67
2022-12-03T13:13:31.122Z,35.67
2022-12-03T13:16:00.858Z,34.27
2022-12-03T13:18:31.031Z,37.00
2022-12-03T13:20:59.361Z,29.87
2022-12-03T13:23:32.876Z,37.47
2022-12-03T13:28:48.905Z,30.13
2022-12-03T13:31:24.939Z,32.63
2022-12-03T13:33:52.605Z,34.63
2022-12-03T13:36:21.577Z,33.37
2022-12-03T14:04:37.435Z,38.47
2022-12-03T14:07:09.296Z,27.40
2022-12-03T14:09:36.964Z,32.63
2022-12-03T14:12:22.082Z,34.73
2022-12-03T14:14:49.665Z,27.43
2022-12-03T14:17:18.748Z,28.43
2022-12-03T14:19:46.500Z,30.30
2022-12-03T14:22:14.142Z,25.17
2022-12-03T14:24:41.862Z,28.97
2022-12-03T14:27:11.357Z,26.10
2022-12-03T14:29:39.097Z,24.50
2022-12-03T14:32:06.728Z,23.97
2022-12-03T14:34:35.613Z,24.93
2022-12-03T14:37:03.248Z,24.87
2022-12-03T14:39:30.931Z,21.67
2022-12-03T14:42:16.891Z,23.63
2022-12-03T14:44:45.295Z,20.80
2022-12-03T14:47:13.213Z,25.60
2022-12-03T14:49:42.257Z,21.60
2022-12-03T14:52:12.550Z,25.43
2022-12-03T14:54:42.264Z,24.27
2022-12-03T14:57:11.425Z,29.13
2022-12-03T14:59:39.102Z,27.00
2022-12-03T15:02:06.716Z,30.60
2022-12-03T15:04:34.643Z,29.67
2022-12-03T15:07:03.820Z,24.07
2022-12-03T15:09:31.326Z,19.57
2022-12-03T15:12:00.053Z,26.53
2022-12-03T15:14:27.923Z,23.20
2022-12-03T15:16:55.659Z,23.40
2022-12-03T15:19:23.452Z,21.60
2022-12-03T15:21:51.190Z,25.60
2022-12-03T15:24:20.123Z,22.90
2022-12-03T15:26:47.660Z,18.87
2022-12-03T15:29:15.223Z,19.67
2022-12-03T15:31:42.900Z,21.90
2022-12-03T15:34:10.477Z,24.13
2022-12-03T15:36:37.985Z,23.73
2022-12-03T15:39:05.599Z,26.70
2022-12-03T15:41:34.537Z,23.10
2022-12-03T15:44:02.750Z,20.57
2022-12-03T15:46:31.889Z,20.87
2022-12-03T15:49:00.454Z,25.03
2022-12-03T15:51:28.062Z,23.70
2022-12-03T15:53:55.620Z,23.50
2022-12-03T15:56:23.171Z,25.63
2022-12-03T15:58:53.470Z,25.20
2022-12-03T16:01:21.231Z,28.73
2022-12-03T16:03:48.866Z,21.60
2022-12-03T16:06:18.131Z,27.57
2022-12-03T16:08:46.041Z,22.00
2022-12-03T16:11:13.583Z,32.53
2022-12-03T16:13:41.120Z,23.73
2022-12-03T16:16:12.801Z,25.97
2022-12-03T16:18:40.427Z,25.83
2022-12-03T16:21:07.931Z,24.10
2022-12-03T16:23:35.510Z,20.10
2022-12-03T16:26:03.075Z,28.10
2022-12-03T16:28:30.776Z,22.77
2022-12-03T16:30:58.484Z,26.80
2022-12-03T16:33:28.145Z,27.40
2022-12-03T16:35:55.877Z,27.53
2022-12-03T16:38:23.702Z,25.33
2022-12-03T16:40:51.314Z,25.93
2022-12-03T16:43:18.876Z,24.03
2022-12-03T16:46:02.441Z,28.77
2022-12-03T16:48:31.460Z,27.00
2022-12-03T16:50:59.031Z,30.47
2022-12-03T16:53:26.573Z,25.23
2022-12-03T16:55:54.196Z,24.90
2022-12-03T16:58:21.992Z,31.67
2022-12-03T17:00:49.679Z,33.23
2022-12-03T17:03:17.978Z,43.57
2022-12-03T17:05:47.503Z,60.63
2022-12-03T17:08:15.442Z,32.80
2022-12-03T17:10:43.278Z,31.03
2022-12-03T17:13:11.333Z,44.23
2022-12-03T17:15:39.271Z,26.07
2022-12-03T17:18:07.330Z,31.77
2022-12-03T17:20:34.820Z,31.67
2022-12-03T17:23:04.235Z,31.30
2022-12-03T17:25:32.053Z,31.80
2022-12-03T17:27:59.614Z,27.90
2022-12-03T17:30:27.194Z,32.50
2022-12-03T17:32:54.839Z,26.77
2022-12-03T17:35:22.566Z,32.90
2022-12-03T17:37:50.138Z,31.53
2022-12-03T17:40:19.061Z,32.90
2022-12-03T17:42:46.558Z,39.10
2022-12-03T17:45:14.154Z,28.40
2022-12-03T17:47:42.011Z,44.47
2022-12-03T17:50:10.099Z,41.03
2022-12-03T17:52:37.654Z,34.93
2022-12-03T17:55:21.322Z,38.90
2022-12-03T17:57:54.447Z,30.97
2022-12-03T18:00:22.087Z,40.37
2022-12-03T18:02:49.706Z,30.43
2022-12-03T18:05:17.587Z,31.60
2022-12-03T18:07:45.133Z,31.33
2022-12-03T18:10:12.689Z,34.30
2022-12-03T18:12:40.340Z,36.10
2022-12-03T18:15:10.113Z,32.50
2022-12-03T18:17:37.705Z,36.47
2022-12-03T18:20:05.844Z,36.63
2022-12-03T18:22:33.384Z,31.07
2022-12-03T18:25:01.079Z,31.37
2022-12-03T18:27:28.604Z,40.50
2022-12-03T18:29:56.407Z,34.50
2022-12-03T18:32:29.320Z,33.60
2022-12-03T18:34:57.215Z,36.80
2022-12-03T18:37:26.111Z,45.93
2022-12-03T18:39:54.013Z,44.37
2022-12-03T18:42:22.856Z,35.47
2022-12-03T18:44:51.028Z,40.93
2022-12-03T18:47:19.760Z,43.30
2022-12-03T18:49:48.833Z,40.40
2022-12-03T18:52:16.937Z,38.37
2022-12-03T18:54:44.462Z,43.97
2022-12-03T18:57:11.975Z,36.63
2022-12-03T18:59:39.687Z,37.23
2022-12-03T19:02:07.864Z,38.97
2022-12-03T19:04:35.635Z,44.40
2022-12-03T19:07:04.592Z,37.10
2022-12-03T19:09:32.189Z,39.23
2022-12-03T19:11:59.693Z,36.37
2022-12-03T19:14:27.290Z,42.00
2022-12-03T19:16:54.887Z,43.13
2022-12-03T19:19:22.439Z,40.57
2022-12-03T19:21:50.053Z,40.20
2022-12-03T19:24:26.070Z,40.50
2022-12-03T19:26:55.454Z,42.23
2022-12-03T19:29:23.227Z,42.20
2022-12-03T19:31:51.243Z,40.20
2022-12-03T19:34:19.020Z,40.40
2022-12-03T19:36:47.441Z,38.83
2022-12-03T19:39:15.225Z,48.00
2022-12-03T19:41:44.731Z,44.63
2022-12-03T19:44:13.367Z,46.70
2022-12-03T19:46:41.474Z,41.57
2022-12-03T19:49:08.979Z,42.60
2022-12-03T19:51:36.503Z,43.00
2022-12-03T19:54:04.491Z,42.70
2022-12-03T19:56:32.332Z,41.03
2022-12-03T19:59:01.378Z,44.03
2022-12-03T20:01:31.610Z,43.83
2022-12-03T20:04:00.544Z,43.93
2022-12-03T20:06:29.155Z,41.97
2022-12-03T20:08:56.730Z,41.67
2022-12-03T20:11:25.290Z,42.20
2022-12-03T20:13:53.706Z,46.20
2022-12-03T20:16:23.176Z,51.03
2022-12-03T20:18:51.445Z,40.93
2022-12-03T20:21:20.038Z,42.93
2022-12-03T20:23:48.244Z,47.93
2022-12-03T20:26:16.855Z,43.67
2022-12-03T20:28:45.010Z,41.13
2022-12-03T20:31:13.578Z,36.53
2022-12-03T20:33:43.565Z,42.27
2022-12-03T20:36:11.438Z,44.10
2022-12-03T20:38:39.295Z,40.43
2022-12-03T20:41:07.919Z,46.57
2022-12-03T20:43:35.764Z,39.77
2022-12-03T20:46:07.223Z,38.83
2022-12-03T20:48:34.809Z,41.93
2022-12-03T20:51:05.772Z,45.50
2022-12-03T20:53:33.404Z,42.50
2022-12-03T20:56:01.535Z,41.17
2022-12-03T20:58:29.454Z,42.73
2022-12-03T21:00:57.261Z,41.43
2022-12-03T21:03:24.879Z,42.67
2022-12-03T21:05:59.299Z,42.33
2022-12-03T21:08:40.639Z,39.80
2022-12-03T21:11:09.927Z,38.97
2022-12-03T21:13:41.042Z,39.47
2022-12-03T21:16:09.499Z,42.50
2022-12-03T21:18:37.156Z,34.60
2022-12-03T21:21:05.023Z,39.13
2022-12-03T21:23:34.430Z,42.27
2022-12-03T21:26:03.408Z,39.27
2022-12-03T21:28:30.976Z,38.67
2022-12-03T21:31:01.418Z,35.37
2022-12-03T21:33:29.532Z,37.13
2022-12-03T21:35:57.313Z,38.03
2022-12-03T21:38:25.402Z,37.37
2022-12-03T21:40:54.371Z,38.27
2022-12-03T21:43:22.002Z,36.93
2022-12-03T21:45:49.954Z,41.40
2022-12-03T21:48:17.865Z,37.20
2022-12-03T21:50:45.987Z,39.03
2022-12-03T21:53:13.633Z,36.00
2022-12-03T21:55:41.342Z,34.47
2022-12-03T21:58:10.255Z,36.00
2022-12-03T22:00:37.833Z,36.23
2022-12-03T22:03:05.517Z,40.23
2022-12-03T22:05:33.144Z,35.13
2022-12-03T22:08:00.730Z,40.80
2022-12-03T22:10:28.239Z,38.90
2022-12-03T22:12:55.968Z,34.77
2022-12-03T22:15:25.021Z,39.13
2022-12-03T22:17:52.686Z,34.27
2022-12-03T22:20:20.587Z,40.10
2022-12-03T22:22:48.118Z,39.20
2022-12-03T22:25:15.932Z,38.07
2022-12-03T22:27:58.225Z,35.63
2022-12-03T22:30:27.201Z,40.20
2022-12-03T22:32:54.788Z,32.83
2022-12-03T22:35:22.386Z,31.03
2022-12-03T22:37:49.894Z,36.40
2022-12-03T22:40:17.719Z,35.27
2022-12-03T22:42:51.053Z,32.67
2022-12-03T22:45:18.788Z,30.37
2022-12-03T22:47:47.643Z,34.57
2022-12-03T22:50:15.123Z,31.30
2022-12-03T22:52:42.845Z,32.93
2022-12-03T22:55:10.542Z,32.57
2022-12-03T22:57:38.072Z,29.00
2022-12-03T23:00:08.125Z,31.77
2022-12-03T23:02:35.747Z,35.07
2022-12-03T23:05:04.948Z,28.53
2022-12-03T23:07:32.587Z,28.57
2022-12-03T23:10:00.162Z,28.60
2022-12-03T23:12:27.693Z,27.80
2022-12-03T23:14:55.768Z,26.80
2022-12-03T23:17:23.288Z,33.17
2022-12-03T23:19:51.001Z,31.03
2022-12-03T23:22:20.047Z,29.77
2022-12-03T23:24:47.575Z,28.47
2022-12-03T23:27:15.229Z,30.23
2022-12-03T23:29:42.945Z,33.30
2022-12-03T23:32:10.599Z,33.97
2022-12-03T23:34:38.205Z,32.20
2022-12-03T23:37:05.837Z,34.93
2022-12-03T23:39:34.770Z,27.33
2022-12-03T23:42:02.424Z,29.57
2022-12-03T23:44:29.951Z,35.07
2022-12-03T23:46:57.618Z,31.37
2022-12-03T23:49:25.204Z,32.83
2022-12-03T23:51:52.775Z,30.77
2022-12-03T23:54:20.422Z,30.53
2022-12-03T23:56:49.376Z,29.03
2022-12-03T23:59:16.877Z,38.00
